Time;durP1;ratioP1;P1;durP2;ratioP2;P2;SDS_P1;SDS_P2;PMS_P1;PMS_P2;Temp;Humidity;BMP_temperature;BMP_pressure;BME280_temperature;BME280_humidity;BME280_pressure;Samples;Min_cycle;Max_cycle;Signal;HPM_P1;HPM_P2
2021/07/05 00:00:15;;;;;;;1.75;1.60;;;16.80;91.00;;;;;;5053592;28;20532;-84
2021/07/05 00:02:42;;;;;;;1.40;1.17;;;16.80;91.00;;;;;;5057072;28;20033;-83
2021/07/05 00:05:08;;;;;;;2.13;1.40;;;16.70;91.00;;;;;;5057010;28;20039;-82
2021/07/05 00:07:34;;;;;;;1.52;1.20;;;16.70;91.00;;;;;;5057015;28;20116;-83
2021/07/05 00:10:00;;;;;;;1.80;1.30;;;16.70;91.00;;;;;;5057113;28;20099;-83
2021/07/05 00:12:26;;;;;;;1.83;1.27;;;16.70;91.00;;;;;;5057066;28;20079;-83
2021/07/05 00:14:52;;;;;;;1.05;1.00;;;16.70;91.00;;;;;;5056510;28;20029;-82
2021/07/05 00:17:18;;;;;;;1.33;1.05;;;16.70;91.10;;;;;;5056590;28;20021;-84
2021/07/05 00:19:43;;;;;;;1.55;1.00;;;16.70;91.00;;;;;;5039004;28;20060;-83
2021/07/05 00:22:09;;;;;;;1.48;1.38;;;16.70;91.00;;;;;;5056861;28;20056;-83
2021/07/05 00:24:34;;;;;;;1.95;1.30;;;16.70;91.00;;;;;;5056802;28;20040;-83
2021/07/05 00:27:00;;;;;;;1.40;1.30;;;16.70;91.00;;;;;;5056762;28;20048;-84
2021/07/05 00:29:26;;;;;;;1.63;1.35;;;16.80;90.90;;;;;;5056435;28;20036;-84
2021/07/05 00:31:51;;;;;;;1.45;1.10;;;16.80;90.90;;;;;;5056687;28;20017;-85
2021/07/05 00:34:17;;;;;;;1.67;1.13;;;16.80;90.90;;;;;;5056977;28;20021;-84
2021/07/05 00:36:43;;;;;;;1.50;1.10;;;16.80;90.90;;;;;;5056865;28;20393;-86
2021/07/05 00:39:09;;;;;;;1.10;1.00;;;16.80;90.90;;;;;;5056907;28;20048;-84
2021/07/05 00:41:35;;;;;;;1.15;1.05;;;16.90;90.90;;;;;;5056961;28;20032;-86
2021/07/05 00:44:00;;;;;;;0.80;0.80;;;16.90;90.90;;;;;;5056516;28;20029;-86
2021/07/05 00:46:26;;;;;;;1.10;1.00;;;16.90;90.90;;;;;;5056777;28;20009;-84
2021/07/05 00:48:52;;;;;;;0.98;0.90;;;16.90;90.90;;;;;;5038743;28;20056;-84
2021/07/05 00:51:19;;;;;;;1.13;1.02;;;17.00;90.90;;;;;;5056970;28;20104;-85
2021/07/05 00:53:46;;;;;;;1.63;1.10;;;17.00;91.00;;;;;;5056484;28;20031;-83
2021/07/05 00:56:11;;;;;;;0.70;0.65;;;17.00;90.90;;;;;;5056493;28;20021;-84
2021/07/05 00:58:38;;;;;;;0.93;0.90;;;17.00;90.90;;;;;;5038215;28;20144;-85
2021/07/05 01:01:04;;;;;;;1.13;1.00;;;17.00;90.90;;;;;;5056155;28;20124;-85
2021/07/05 01:03:29;;;;;;;0.93;0.70;;;17.10;90.90;;;;;;5056345;28;20060;-86
2021/07/05 01:05:55;;;;;;;1.08;0.90;;;17.00;90.90;;;;;;5038456;28;20021;-85
2021/07/05 01:08:20;;;;;;;1.27;0.90;;;17.10;90.90;;;;;;5038523;28;20032;-85
2021/07/05 01:10:47;;;;;;;0.65;0.65;;;17.10;90.90;;;;;;5055865;28;20021;-84
2021/07/05 01:13:13;;;;;;;0.98;0.85;;;17.10;90.90;;;;;;5036879;28;20112;-84
2021/07/05 01:15:38;;;;;;;1.00;0.90;;;17.10;90.90;;;;;;5055822;28;20109;-84
2021/07/05 01:18:06;;;;;;;0.70;0.55;;;17.10;90.90;;;;;;5055809;28;20155;-83
2021/07/05 01:20:34;;;;;;;1.45;0.90;;;17.10;90.90;;;;;;5055701;28;20025;-83
2021/07/05 01:23:00;;;;;;;0.65;0.65;;;17.10;90.90;;;;;;5055826;28;20078;-85
2021/07/05 01:25:28;;;;;;;0.88;0.80;;;17.10;90.90;;;;;;5055422;28;20469;-84
2021/07/05 01:27:54;;;;;;;0.80;0.80;;;17.10;90.80;;;;;;5055715;28;20017;-84
2021/07/05 01:30:22;;;;;;;1.23;0.93;;;17.10;90.80;;;;;;5055649;28;20382;-84
2021/07/05 01:32:49;;;;;;;0.55;0.55;;;17.10;90.90;;;;;;5055562;28;20020;-83
2021/07/05 01:35:16;;;;;;;1.17;0.98;;;17.20;90.90;;;;;;5055635;28;20029;-83
2021/07/05 01:37:42;;;;;;;1.17;0.98;;;17.20;90.90;;;;;;5055413;28;20199;-84
2021/07/05 01:40:15;;;;;;;0.73;0.73;;;17.20;90.90;;;;;;5054996;28;20029;-83
2021/07/05 01:42:40;;;;;;;1.48;1.00;;;17.20;90.90;;;;;;5055483;28;20025;-83
2021/07/05 01:45:07;;;;;;;0.90;0.80;;;17.10;90.90;;;;;;5055623;28;20100;-85
2021/07/05 01:47:32;;;;;;;0.88;0.88;;;17.10;90.90;;;;;;5055537;28;20021;-85
2021/07/05 01:49:58;;;;;;;1.08;1.00;;;17.10;90.90;;;;;;5055480;28;20385;-85
2021/07/05 01:52:23;;;;;;;1.35;1.05;;;17.00;90.90;;;;;;5055192;28;20067;-84
2021/07/05 01:54:49;;;;;;;0.60;0.60;;;17.00;90.90;;;;;;5054821;28;20025;-85
2021/07/05 01:57:27;;;;;;;0.80;0.80;;;17.00;91.00;;;;;;5055020;28;20478;-84
2021/07/05 01:59:58;;;;;;;1.38;1.00;;;16.90;90.90;;;;;;5055036;28;20076;-84
2021/07/05 02:02:25;;;;;;;0.82;0.82;;;16.90;90.90;;;;;;5055174;28;20092;-85
2021/07/05 02:04:52;;;;;;;0.82;0.73;;;16.90;91.00;;;;;;5055171;28;20091;-84
2021/07/05 02:07:18;;;;;;;1.00;0.80;;;16.90;91.00;;;;;;5054937;28;20430;-83
2021/07/05 02:09:45;;;;;;;0.70;0.70;;;16.90;91.00;;;;;;5054207;28;20109;-83
2021/07/05 02:12:12;;;;;;;1.20;1.05;;;16.90;91.00;;;;;;5054786;28;20028;-84
2021/07/05 02:14:38;;;;;;;0.85;0.70;;;16.90;91.00;;;;;;5036825;28;20395;-84
2021/07/05 02:17:07;;;;;;;0.60;0.60;;;17.00;91.00;;;;;;5054676;28;20014;-84
2021/07/05 02:19:32;;;;;;;0.80;0.73;;;16.90;90.90;;;;;;5054475;28;20116;-84
2021/07/05 02:21:58;;;;;;;0.80;0.80;;;16.90;91.00;;;;;;5036535;28;20045;-83
2021/07/05 02:24:23;;;;;;;0.60;0.60;;;16.90;91.00;;;;;;5053822;28;20033;-85
2021/07/05 02:26:49;;;;;;;0.40;0.40;;;16.90;91.00;;;;;;5054490;28;20215;-84
2021/07/05 02:29:15;;;;;;;1.38;0.80;;;16.90;91.00;;;;;;5054695;28;20051;-83
2021/07/05 02:31:40;;;;;;;0.70;0.70;;;16.80;91.00;;;;;;5054702;28;20462;-84
2021/07/05 02:34:06;;;;;;;0.82;0.82;;;16.80;91.00;;;;;;5054394;28;20021;-84
2021/07/05 02:36:32;;;;;;;0.50;0.40;;;16.80;91.10;;;;;;5054416;28;20170;-84
2021/07/05 02:38:58;;;;;;;0.98;0.98;;;16.90;91.00;;;;;;5054010;28;20029;-85
2021/07/05 02:41:23;;;;;;;0.52;0.52;;;16.90;91.00;;;;;;5054437;28;20024;-84
2021/07/05 02:43:49;;;;;;;1.20;0.98;;;16.90;91.00;;;;;;5054338;28;20547;-84
2021/07/05 02:46:15;;;;;;;0.80;0.80;;;16.90;91.00;;;;;;5054451;28;20021;-84
2021/07/05 02:48:41;;;;;;;0.82;0.73;;;16.90;91.00;;;;;;5054350;28;20082;-82
2021/07/05 02:51:08;;;;;;;0.68;0.68;;;16.90;91.00;;;;;;5036205;28;20017;-84
2021/07/05 02:53:35;;;;;;;0.60;0.60;;;17.00;91.00;;;;;;5053823;28;20029;-83
2021/07/05 02:56:00;;;;;;;1.30;1.00;;;17.00;91.00;;;;;;5054283;28;20028;-85
2021/07/05 02:58:26;;;;;;;1.08;0.98;;;17.00;91.00;;;;;;5054147;28;20044;-84
2021/07/05 03:00:55;;;;;;;1.00;0.90;;;16.90;91.00;;;;;;5054033;28;20127;-84
2021/07/05 03:03:22;;;;;;;0.80;0.80;;;16.90;91.00;;;;;;5054576;28;20029;-86
2021/07/05 03:05:47;;;;;;;1.17;1.02;;;16.90;91.00;;;;;;5036902;28;20059;-89
2021/07/05 03:08:13;;;;;;;1.02;0.93;;;16.90;91.00;;;;;;5055046;28;20021;-91
2021/07/05 03:10:40;;;;;;;1.00;1.00;;;16.90;91.10;;;;;;5055207;28;20376;-90
2021/07/05 03:13:08;;;;;;;1.48;1.35;;;16.90;91.10;;;;;;5055298;28;20056;-91
2021/07/05 03:15:34;;;;;;;1.67;1.50;;;16.80;91.10;;;;;;5056016;28;20028;-91
2021/07/05 03:18:00;;;;;;;1.90;1.45;;;16.80;91.20;;;;;;5039416;28;20502;-90
2021/07/05 03:20:29;;;;;;;1.90;1.45;;;16.80;91.20;;;;;;5055282;28;20486;-89
2021/07/05 03:23:00;;;;;;;1.85;1.55;;;16.80;91.20;;;;;;5057540;28;20049;-91
2021/07/05 03:25:28;;;;;;;1.45;1.35;;;16.70;91.20;;;;;;5059206;28;20021;-91
2021/07/05 03:27:53;;;;;;;1.13;1.02;;;16.70;91.40;;;;;;5059492;28;20021;-90
2021/07/05 03:30:20;;;;;;;1.33;1.23;;;16.70;91.30;;;;;;5057485;28;20040;-92
2021/07/05 03:32:46;;;;;;;1.27;1.20;;;16.70;91.30;;;;;;5055984;28;20029;-92
2021/07/05 03:35:14;;;;;;;2.35;1.50;;;16.70;91.30;;;;;;5054761;28;20036;-92
2021/07/05 03:37:40;;;;;;;1.83;1.65;;;16.70;91.30;;;;;;5055714;28;20033;-91
2021/07/05 03:40:08;;;;;;;1.55;1.23;;;16.70;91.30;;;;;;5058817;28;20025;-92
2021/07/05 03:42:33;;;;;;;1.70;1.38;;;16.70;91.40;;;;;;5059912;28;20021;-88
2021/07/05 03:45:00;;;;;;;1.42;1.33;;;16.70;91.30;;;;;;5057170;28;20025;-90
2021/07/05 03:47:25;;;;;;;2.42;1.90;;;16.70;91.30;;;;;;5056547;28;20028;-90
2021/07/05 03:49:51;;;;;;;2.10;1.90;;;16.70;91.30;;;;;;5055298;28;20470;-89
2021/07/05 03:52:17;;;;;;;3.03;1.65;;;16.70;91.30;;;;;;5055810;28;20355;-90
2021/07/05 03:54:43;;;;;;;1.70;1.38;;;16.70;91.40;;;;;;5054145;28;20029;-88
2021/07/05 03:57:21;;;;;;;2.00;1.67;;;16.70;91.40;;;;;;5053980;28;20021;-88
2021/07/05 03:59:51;;;;;;;2.57;1.70;;;16.70;91.40;;;;;;5053770;28;20060;-86
2021/07/05 04:02:18;;;;;;;1.70;1.60;;;16.50;91.40;;;;;;5053993;28;20508;-86
2021/07/05 04:04:43;;;;;;;1.38;1.20;;;16.40;91.50;;;;;;5053717;28;20028;-85
2021/07/05 04:07:09;;;;;;;1.55;1.25;;;16.40;91.60;;;;;;5052985;28;20021;-85
2021/07/05 04:09:36;;;;;;;1.10;1.00;;;16.30;91.70;;;;;;5035398;28;20112;-84
2021/07/05 04:12:02;;;;;;;1.58;1.00;;;16.20;91.80;;;;;;5053248;28;20025;-86
2021/07/05 04:14:27;;;;;;;2.10;1.23;;;16.20;91.80;;;;;;5053410;28;20048;-87
2021/07/05 04:16:53;;;;;;;1.95;1.08;;;16.20;91.90;;;;;;5053256;28;20423;-83
2021/07/05 04:19:21;;;;;;;1.02;1.00;;;16.10;91.90;;;;;;5052593;28;20120;-85
2021/07/05 04:21:47;;;;;;;0.80;0.80;;;16.00;91.90;;;;;;5053106;28;20067;-79
2021/07/05 04:24:13;;;;;;;0.77;0.75;;;15.80;92.00;;;;;;5052984;28;20385;-84
2021/07/05 04:26:38;;;;;;;1.08;0.70;;;15.60;92.20;;;;;;5052847;28;20432;-82
2021/07/05 04:29:04;;;;;;;0.70;0.70;;;15.50;92.30;;;;;;5034761;28;20017;-81
2021/07/05 04:31:30;;;;;;;1.00;0.90;;;15.30;92.20;;;;;;5052683;28;20021;-82
2021/07/05 04:33:55;;;;;;;0.75;0.70;;;15.20;92.30;;;;;;5052404;28;20070;-81
2021/07/05 04:36:21;;;;;;;0.70;0.55;;;15.10;92.40;;;;;;5052762;28;20025;-82
2021/07/05 04:38:47;;;;;;;0.43;0.43;;;15.10;92.30;;;;;;5052658;28;20059;-83
2021/07/05 04:41:13;;;;;;;0.73;0.70;;;15.00;92.30;;;;;;5052511;28;20021;-82
2021/07/05 04:43:38;;;;;;;0.68;0.68;;;15.00;92.30;;;;;;5052733;28;20022;-81
2021/07/05 04:46:05;;;;;;;0.85;0.73;;;15.00;92.30;;;;;;5053318;28;20481;-80
2021/07/05 04:48:32;;;;;;;0.60;0.60;;;15.00;92.30;;;;;;5055860;28;20115;-81
2021/07/05 04:50:57;;;;;;;0.77;0.77;;;15.00;92.20;;;;;;5056233;28;20021;-80
2021/07/05 04:53:23;;;;;;;0.65;0.55;;;14.90;92.20;;;;;;5056261;28;20426;-81
2021/07/05 04:55:49;;;;;;;0.40;0.40;;;14.90;92.30;;;;;;5056079;28;20028;-81
2021/07/05 04:58:15;;;;;;;0.68;0.68;;;14.90;92.20;;;;;;5056176;28;20032;-81
2021/07/05 05:00:40;;;;;;;0.55;0.55;;;14.90;92.30;;;;;;5056550;28;20502;-82
2021/07/05 05:03:06;;;;;;;0.77;0.50;;;14.90;92.20;;;;;;5038171;28;20043;-82
2021/07/05 05:05:33;;;;;;;0.50;0.50;;;14.90;92.20;;;;;;5056078;28;20092;-82
2021/07/05 05:07:59;;;;;;;0.80;0.55;;;15.00;92.10;;;;;;5038138;28;20063;-80
2021/07/05 05:10:25;;;;;;;0.73;0.73;;;15.00;92.10;;;;;;5055765;28;20021;-80
2021/07/05 05:12:52;;;;;;;0.43;0.43;;;15.10;92.10;;;;;;5055760;28;20029;-82
2021/07/05 05:15:19;;;;;;;0.60;0.43;;;15.00;92.00;;;;;;5055941;28;20041;-81
2021/07/05 05:17:46;;;;;;;0.50;0.40;;;15.00;92.10;;;;;;5055196;28;20080;-82
2021/07/05 05:20:13;;;;;;;0.28;0.28;;;15.00;92.10;;;;;;5055646;28;20108;-80
2021/07/05 05:22:39;;;;;;;0.50;0.50;;;15.00;92.10;;;;;;5055497;28;20025;-81
2021/07/05 05:25:08;;;;;;;0.47;0.35;;;15.00;92.10;;;;;;5055697;28;20021;-81
2021/07/05 05:27:33;;;;;;;1.10;0.60;;;15.00;92.10;;;;;;5055590;28;20017;-81
2021/07/05 05:29:59;;;;;;;0.98;0.90;;;15.00;92.10;;;;;;5037634;28;20028;-81
2021/07/05 05:32:25;;;;;;;0.32;0.32;;;15.10;92.10;;;;;;5037268;28;20478;-88
2021/07/05 05:34:50;;;;;;;0.85;0.50;;;15.10;92.10;;;;;;5037702;28;20028;-83
2021/07/05 05:37:16;;;;;;;0.45;0.40;;;15.20;92.00;;;;;;5037642;28;20028;-79
2021/07/05 05:39:44;;;;;;;0.30;0.30;;;15.20;92.00;;;;;;5056328;28;20021;-89
2021/07/05 05:42:09;;;;;;;0.52;0.52;;;15.20;91.90;;;;;;5038676;28;20032;-84
2021/07/05 05:44:35;;;;;;;0.60;0.45;;;15.30;91.90;;;;;;5055952;28;20084;-85
2021/07/05 05:47:00;;;;;;;0.73;0.65;;;15.30;91.90;;;;;;5054942;28;20052;-84
2021/07/05 05:49:26;;;;;;;0.80;0.80;;;15.30;91.80;;;;;;5055434;28;20074;-83
2021/07/05 05:51:51;;;;;;;0.50;0.50;;;15.40;91.80;;;;;;5055318;28;20091;-80
2021/07/05 05:54:17;;;;;;;1.30;0.60;;;15.40;91.80;;;;;;5054988;28;20387;-81
2021/07/05 05:56:43;;;;;;;0.52;0.52;;;15.40;91.80;;;;;;5054854;28;20032;-80
2021/07/05 05:59:10;;;;;;;1.15;0.70;;;15.40;91.80;;;;;;5054153;28;20029;-81
2021/07/05 06:01:39;;;;;;;0.40;0.40;;;15.50;91.80;;;;;;5054301;28;20124;-80
2021/07/05 06:04:05;;;;;;;0.70;0.68;;;15.50;91.80;;;;;;5054839;28;20029;-80
2021/07/05 06:06:33;;;;;;;0.70;0.70;;;15.50;91.80;;;;;;5054851;28;20071;-80
2021/07/05 06:08:59;;;;;;;0.88;0.88;;;15.50;91.80;;;;;;5054620;28;20017;-80
2021/07/05 06:11:25;;;;;;;0.57;0.52;;;15.50;91.80;;;;;;5054521;28;20469;-79
2021/07/05 06:13:51;;;;;;;0.63;0.60;;;15.50;91.80;;;;;;5037174;28;20029;-83
2021/07/05 06:16:16;;;;;;;1.05;0.70;;;15.50;91.80;;;;;;5054349;28;20024;-83
2021/07/05 06:18:42;;;;;;;1.52;0.90;;;15.50;91.80;;;;;;5054727;28;20029;-84
2021/07/05 06:21:08;;;;;;;0.80;0.80;;;15.50;91.80;;;;;;5054883;28;20021;-84
2021/07/05 06:23:33;;;;;;;1.08;1.05;;;15.50;91.80;;;;;;5054562;28;20021;-82
2021/07/05 06:26:01;;;;;;;1.33;0.95;;;15.50;91.90;;;;;;5054530;28;20485;-84
2021/07/05 06:28:30;;;;;;;0.75;0.70;;;15.50;91.80;;;;;;5054532;28;20107;-84
2021/07/05 06:30:57;;;;;;;0.55;0.52;;;15.60;91.80;;;;;;5054253;28;20108;-85
2021/07/05 06:33:23;;;;;;;1.73;0.70;;;15.60;91.80;;;;;;5054918;28;20028;-84
2021/07/05 06:35:49;;;;;;;0.57;0.45;;;15.70;91.80;;;;;;5054707;28;20464;-84
2021/07/05 06:38:17;;;;;;;0.38;0.38;;;15.70;91.80;;;;;;5054276;28;20114;-85
2021/07/05 06:40:44;;;;;;;0.30;0.30;;;15.70;91.80;;;;;;5054340;28;20017;-85
2021/07/05 06:43:12;;;;;;;0.45;0.40;;;15.70;91.90;;;;;;5036712;28;20053;-84
2021/07/05 06:45:39;;;;;;;0.73;0.45;;;15.70;91.90;;;;;;5053965;28;20031;-83
2021/07/05 06:48:05;;;;;;;0.40;0.30;;;15.70;91.90;;;;;;5054388;28;20054;-83
2021/07/05 06:50:31;;;;;;;0.73;0.57;;;15.70;92.00;;;;;;5054004;28;20033;-82
2021/07/05 06:52:57;;;;;;;0.52;0.38;;;15.70;92.00;;;;;;5054093;28;20025;-83
2021/07/05 06:55:23;;;;;;;0.30;0.30;;;15.70;92.00;;;;;;5054133;28;20052;-84
2021/07/05 06:57:48;;;;;;;0.30;0.30;;;15.70;92.00;;;;;;5054073;28;20051;-82
2021/07/05 07:00:17;;;;;;;0.35;0.35;;;15.70;92.00;;;;;;5053584;28;20485;-84
2021/07/05 07:02:43;;;;;;;0.10;0.10;;;15.80;92.00;;;;;;5054048;28;20064;-84
2021/07/05 07:05:12;;;;;;;0.32;0.32;;;15.80;92.00;;;;;;5055731;28;20096;-84
2021/07/05 07:07:39;;;;;;;0.32;0.32;;;15.90;92.00;;;;;;5053946;28;20377;-81
2021/07/05 07:10:06;;;;;;;0.20;0.20;;;15.90;91.90;;;;;;5053837;28;20032;-82
2021/07/05 07:12:35;;;;;;;0.22;0.22;;;16.00;91.90;;;;;;5053638;28;20036;-83
2021/07/05 07:15:00;;;;;;;0.20;0.20;;;16.00;91.80;;;;;;5053489;28;20021;-83
2021/07/05 07:17:31;;;;;;;0.30;0.30;;;16.10;91.80;;;;;;5053664;28;20367;-81
2021/07/05 07:19:57;;;;;;;0.50;0.50;;;16.10;91.80;;;;;;5054098;28;20029;-84
2021/07/05 07:22:22;;;;;;;0.30;0.20;;;16.10;91.80;;;;;;5035889;28;20394;-83
2021/07/05 07:24:48;;;;;;;0.30;0.30;;;16.20;91.80;;;;;;5053618;28;20544;-82
2021/07/05 07:27:14;;;;;;;0.28;0.22;;;16.30;91.80;;;;;;5053478;28;20055;-82
2021/07/05 07:29:39;;;;;;;0.30;0.30;;;16.40;91.70;;;;;;5035143;28;20362;-80
2021/07/05 07:32:05;;;;;;;0.30;0.30;;;16.40;91.70;;;;;;5053169;28;20067;-79
2021/07/05 07:34:31;;;;;;;0.30;0.30;;;16.50;91.70;;;;;;5053361;28;20108;-81
2021/07/05 07:37:00;;;;;;;0.17;0.17;;;16.60;91.60;;;;;;5053184;28;20466;-80
2021/07/05 07:39:33;;;;;;;0.30;0.30;;;16.70;91.90;;;;;;5053423;28;20482;-80
2021/07/05 07:41:58;;;;;;;0.20;0.20;;;16.80;91.50;;;;;;5053254;28;20545;-80
2021/07/05 07:44:24;;;;;;;0.30;0.30;;;16.70;91.60;;;;;;5052787;28;20101;-82
2021/07/05 07:46:49;;;;;;;0.28;0.28;;;16.60;91.70;;;;;;5053497;28;20021;-89
2021/07/05 07:49:15;;;;;;;0.20;0.20;;;16.60;91.70;;;;;;5053147;28;20493;-81
2021/07/05 07:51:40;;;;;;;0.65;0.40;;;16.70;91.80;;;;;;5053043;28;20028;-79
2021/07/05 07:54:06;;;;;;;0.75;0.52;;;16.80;91.70;;;;;;5035289;28;20029;-81
2021/07/05 07:56:32;;;;;;;0.20;0.20;;;16.80;91.70;;;;;;5053007;28;20017;-78
2021/07/05 07:58:59;;;;;;;0.40;0.40;;;16.90;91.60;;;;;;5034627;28;20036;-80
2021/07/05 08:01:27;;;;;;;0.70;0.40;;;16.90;91.60;;;;;;5052672;28;20037;-79
2021/07/05 08:03:53;;;;;;;0.52;0.52;;;17.00;91.60;;;;;;5034956;28;20385;-79
2021/07/05 08:06:18;;;;;;;0.65;0.55;;;17.00;91.60;;;;;;5052962;28;20021;-79
2021/07/05 08:08:47;;;;;;;0.30;0.30;;;17.00;91.60;;;;;;5052781;28;20025;-79
2021/07/05 08:11:13;;;;;;;0.77;0.77;;;17.00;91.60;;;;;;5034997;28;20048;-78
2021/07/05 08:13:39;;;;;;;0.43;0.43;;;17.00;91.70;;;;;;5052446;28;20025;-78
2021/07/05 08:16:04;;;;;;;0.47;0.47;;;17.00;91.70;;;;;;5053037;28;20031;-83
2021/07/05 08:18:30;;;;;;;0.50;0.50;;;17.00;91.70;;;;;;5052821;28;20029;-76
2021/07/05 08:20:56;;;;;;;0.73;0.70;;;17.10;91.70;;;;;;5053256;28;20516;-81
2021/07/05 08:23:22;;;;;;;1.13;0.60;;;17.30;91.60;;;;;;5056956;28;20127;-78
2021/07/05 08:25:47;;;;;;;1.27;0.50;;;17.40;91.50;;;;;;5056726;28;20013;-76
2021/07/05 08:28:13;;;;;;;1.25;1.13;;;17.50;91.40;;;;;;5056304;28;20070;-81
2021/07/05 08:30:39;;;;;;;0.93;0.68;;;17.50;91.40;;;;;;5056629;28;20014;-78
2021/07/05 08:33:04;;;;;;;0.40;0.40;;;17.50;91.50;;;;;;5056348;28;20378;-79
2021/07/05 08:35:30;;;;;;;2.15;0.93;;;17.60;91.50;;;;;;5056848;28;20028;-85
2021/07/05 08:37:56;;;;;;;0.68;0.68;;;17.70;91.40;;;;;;5056645;28;20041;-84
2021/07/05 08:40:22;;;;;;;0.90;0.65;;;17.80;91.40;;;;;;5056595;28;20021;-84
2021/07/05 08:42:48;;;;;;;2.00;1.23;;;17.70;91.40;;;;;;5056687;28;20032;-82
2021/07/05 08:45:15;;;;;;;1.42;1.33;;;17.70;91.50;;;;;;5056946;28;20049;-86
2021/07/05 08:47:42;;;;;;;1.38;1.10;;;17.70;91.50;;;;;;5038999;28;20017;-85
2021/07/05 08:50:10;;;;;;;2.25;1.30;;;17.80;91.50;;;;;;5057050;28;20078;-89
2021/07/05 08:52:42;;;;;;;2.03;1.30;;;17.80;91.30;;;;;;5057228;28;20118;-87
2021/07/05 08:55:10;;;;;;;1.77;1.15;;;17.70;91.40;;;;;;5056318;28;20173;-82
2021/07/05 08:57:40;;;;;;;1.05;0.95;;;17.70;91.40;;;;;;5056223;28;20478;-87
2021/07/05 09:00:09;;;;;;;1.48;1.38;;;17.80;91.50;;;;;;5038877;28;20036;-83
2021/07/05 09:02:35;;;;;;;2.10;1.15;;;17.90;91.40;;;;;;5056037;28;20503;-82
2021/07/05 09:05:01;;;;;;;1.60;1.45;;;17.90;91.40;;;;;;5056059;28;20108;-84
2021/07/05 09:07:26;;;;;;;1.98;1.23;;;18.00;91.30;;;;;;5056307;28;20497;-82
2021/07/05 09:10:01;;;;;;;3.53;2.25;;;18.00;91.40;;;;;;5055485;28;20060;-79
2021/07/05 09:12:27;;;;;;;3.03;2.22;;;18.00;91.20;;;;;;5055862;28;20419;-79
2021/07/05 09:15:09;;;;;;;1.52;1.38;;;18.10;91.30;;;;;;5037948;28;20040;-81
2021/07/05 09:17:37;;;;;;;2.38;1.55;;;18.30;91.20;;;;;;5038063;28;20037;-86
2021/07/05 09:20:14;;;;;;;3.35;2.22;;;18.50;91.00;;;;;;5055966;28;20025;-78
2021/07/05 09:23:08;;;;;;;3.40;2.03;;;18.70;90.70;;;;;;5037970;28;20147;-84
2021/07/05 09:25:35;;;;;;;2.67;2.00;;;18.70;90.60;;;;;;5055132;28;20032;-81
2021/07/05 09:28:03;;;;;;;2.25;1.77;;;18.80;90.60;;;;;;5055530;28;20116;-80
2021/07/05 09:30:46;;;;;;;2.30;1.77;;;18.80;91.00;;;;;;5037680;28;20017;-83
2021/07/05 09:33:19;;;;;;;2.00;1.60;;;18.90;90.50;;;;;;5054426;28;20497;-84
2021/07/05 09:36:04;;;;;;;3.08;1.90;;;19.00;90.50;;;;;;5055891;28;20025;-88
2021/07/05 09:38:43;;;;;;;2.10;1.80;;;18.90;90.60;;;;;;5055816;28;20436;-89
2021/07/05 09:41:29;;;;;;;1.98;1.73;;;18.90;90.50;;;;;;5056394;28;20025;-87
2021/07/05 09:43:57;;;;;;;1.95;1.50;;;18.90;90.50;;;;;;5056068;28;20025;-88
2021/07/05 09:46:41;;;;;;;1.73;1.60;;;18.80;90.60;;;;;;5056034;28;20033;-88
2021/07/05 09:49:14;;;;;;;2.83;1.83;;;18.80;90.70;;;;;;5056641;28;20480;-87
2021/07/05 09:51:42;;;;;;;3.13;1.98;;;18.90;90.70;;;;;;5056732;28;20017;-89
2021/07/05 09:54:08;;;;;;;3.65;2.22;;;18.90;90.60;;;;;;5055890;28;20108;-85
2021/07/05 09:56:34;;;;;;;2.25;1.77;;;19.00;90.50;;;;;;5056932;28;20029;-85
2021/07/05 09:59:13;;;;;;;1.63;1.48;;;19.10;90.30;;;;;;5039061;28;20163;-86
2021/07/05 10:01:47;;;;;;;2.28;1.90;;;19.00;90.30;;;;;;5055711;28;20497;-86
2021/07/05 10:04:31;;;;;;;2.33;1.73;;;19.00;90.30;;;;;;5055851;28;20388;-87
2021/07/05 10:06:59;;;;;;;1.70;1.52;;;19.00;90.40;;;;;;5056168;28;20024;-92
2021/07/05 10:09:40;;;;;;;1.77;1.52;;;19.10;90.30;;;;;;5038166;28;20047;-90
2021/07/05 10:12:25;;;;;;;1.65;1.55;;;19.20;90.30;;;;;;5056034;28;20048;-90
2021/07/05 10:14:57;;;;;;;1.63;1.52;;;19.30;90.20;;;;;;5038218;28;20121;-90
2021/07/05 10:17:24;;;;;;;1.83;1.42;;;19.40;90.10;;;;;;5038270;28;20172;-92
2021/07/05 10:19:50;;;;;;;1.38;1.23;;;19.50;90.00;;;;;;5056470;28;20024;-90
2021/07/05 10:22:16;;;;;;;1.70;1.30;;;19.70;90.10;;;;;;5055592;28;20470;-90
2021/07/05 10:24:43;;;;;;;1.58;1.27;;;19.80;89.80;;;;;;5055805;28;20017;-87
2021/07/05 10:27:11;;;;;;;1.60;1.50;;;19.80;89.60;;;;;;5054818;28;20097;-85
2021/07/05 10:29:39;;;;;;;1.45;1.30;;;19.80;89.80;;;;;;5054637;28;20482;-85
2021/07/05 10:32:06;;;;;;;1.30;1.20;;;19.80;89.90;;;;;;5054587;28;20025;-84
2021/07/05 10:34:32;;;;;;;1.15;0.95;;;19.80;89.90;;;;;;5054538;28;20021;-80
2021/07/05 10:36:58;;;;;;;1.10;0.95;;;19.80;90.00;;;;;;5053845;28;20021;-82
2021/07/05 10:39:26;;;;;;;1.98;1.65;;;19.80;89.90;;;;;;5054486;28;20501;-83
2021/07/05 10:41:51;;;;;;;1.30;1.20;;;19.80;90.00;;;;;;5036396;28;20359;-83
2021/07/05 10:44:20;;;;;;;1.85;1.30;;;19.80;90.00;;;;;;5053672;28;20111;-81
2021/07/05 10:46:50;;;;;;;1.42;1.30;;;19.70;89.90;;;;;;5054215;28;20040;-83
2021/07/05 10:49:27;;;;;;;1.52;1.35;;;19.70;90.00;;;;;;5054329;28;20025;-83
2021/07/05 10:51:54;;;;;;;1.10;1.00;;;19.70;89.70;;;;;;5053702;28;20084;-82
2021/07/05 10:54:47;;;;;;;2.15;1.30;;;19.50;90.20;;;;;;5053849;28;20025;-81
2021/07/05 10:57:15;;;;;;;1.48;1.20;;;19.50;90.20;;;;;;5053954;28;20021;-82
2021/07/05 10:59:44;;;;;;;1.30;1.20;;;19.50;90.30;;;;;;5053765;28;20043;-79
2021/07/05 11:02:34;;;;;;;1.23;1.00;;;19.50;90.20;;;;;;5053633;28;20520;-81
2021/07/05 11:05:00;;;;;;;1.02;0.80;;;19.70;90.10;;;;;;5035865;28;20029;-81
2021/07/05 11:07:45;;;;;;;1.10;1.00;;;19.80;89.90;;;;;;5053356;28;20057;-80
2021/07/05 11:10:26;;;;;;;2.13;0.82;;;19.80;89.70;;;;;;5053963;28;20029;-80
2021/07/05 11:13:04;;;;;;;1.13;1.00;;;19.90;89.70;;;;;;5035915;28;20104;-80
2021/07/05 11:15:58;;;;;;;1.30;1.13;;;20.00;89.80;;;;;;5053559;28;20032;-81
2021/07/05 11:18:36;;;;;;;1.27;0.88;;;20.20;89.50;;;;;;5053424;28;20029;-81
2021/07/05 11:21:02;;;;;;;0.88;0.82;;;20.30;89.30;;;;;;5053091;28;20033;-81
2021/07/05 11:23:53;;;;;;;1.88;1.48;;;20.30;89.00;;;;;;5053392;28;20025;-82
2021/07/05 11:26:20;;;;;;;1.42;1.08;;;20.10;89.00;;;;;;5035441;28;20038;-79
2021/07/05 11:28:46;;;;;;;1.15;1.00;;;20.00;89.40;;;;;;5053235;28;20029;-80
2021/07/05 11:31:20;;;;;;;1.20;0.90;;;20.00;89.60;;;;;;5035619;28;20036;-80
2021/07/05 11:33:46;;;;;;;1.13;1.00;;;20.10;89.50;;;;;;5053191;28;20132;-80
2021/07/05 11:36:22;;;;;;;0.98;0.70;;;20.10;90.00;;;;;;5052835;28;20485;-81
2021/07/05 11:39:03;;;;;;;1.23;1.02;;;20.30;89.20;;;;;;5035137;28;20551;-79
2021/07/05 11:41:29;;;;;;;1.77;1.48;;;20.50;88.90;;;;;;5053156;28;20036;-79
2021/07/05 11:44:05;;;;;;;1.65;1.30;;;20.60;88.50;;;;;;5053274;28;20025;-77
2021/07/05 11:46:46;;;;;;;1.50;1.15;;;20.70;88.40;;;;;;5053302;28;20025;-78
2021/07/05 11:49:14;;;;;;;1.30;1.02;;;20.50;88.50;;;;;;5052468;28;20029;-80
2021/07/05 11:51:47;;;;;;;1.45;1.25;;;20.20;89.00;;;;;;5035217;28;20058;-78
2021/07/05 11:54:22;;;;;;;1.52;1.40;;;20.00;89.40;;;;;;5053084;28;20028;-78
2021/07/05 11:56:53;;;;;;;1.40;1.30;;;19.70;89.70;;;;;;5052445;28;20025;-80
2021/07/05 11:59:27;;;;;;;1.60;1.35;;;19.30;90.10;;;;;;5052954;28;20093;-82
2021/07/05 12:02:04;;;;;;;2.05;1.60;;;18.80;90.40;;;;;;5052954;28;20041;-81
2021/07/05 12:04:34;;;;;;;1.30;1.20;;;18.30;90.80;;;;;;5052513;28;20433;-81
2021/07/05 12:07:03;;;;;;;1.13;1.02;;;18.00;91.20;;;;;;5050843;28;20021;-79
2021/07/05 12:09:32;;;;;;;1.40;1.30;;;17.90;91.50;;;;;;5049911;28;20029;-80
2021/07/05 12:12:06;;;;;;;1.00;1.00;;;17.80;91.40;;;;;;5050024;28;20055;-79
2021/07/05 12:14:32;;;;;;;1.52;1.00;;;17.80;91.40;;;;;;5050077;28;20029;-80
2021/07/05 12:16:59;;;;;;;1.25;1.17;;;17.90;91.30;;;;;;5032236;28;20021;-80
2021/07/05 12:19:28;;;;;;;0.95;0.93;;;18.10;91.10;;;;;;5049160;28;20114;-80
2021/07/05 12:21:56;;;;;;;1.20;1.10;;;18.40;90.90;;;;;;5049962;28;20135;-80
2021/07/05 12:24:33;;;;;;;0.90;0.90;;;18.50;90.80;;;;;;5049833;28;20028;-80
2021/07/05 12:27:03;;;;;;;0.88;0.88;;;18.90;90.60;;;;;;5049997;28;20022;-80
2021/07/05 12:29:45;;;;;;;1.42;1.33;;;19.20;90.40;;;;;;5049867;28;20079;-80
2021/07/05 12:32:21;;;;;;;0.75;0.75;;;19.50;90.20;;;;;;5049619;28;20025;-80
2021/07/05 12:34:58;;;;;;;0.82;0.80;;;19.60;90.10;;;;;;5050193;28;20024;-79
2021/07/05 12:37:33;;;;;;;0.65;0.65;;;19.70;90.10;;;;;;5049829;28;20032;-79
2021/07/05 12:40:01;;;;;;;0.80;0.80;;;19.90;90.00;;;;;;5047754;28;20029;-79
2021/07/05 12:42:30;;;;;;;0.50;0.50;;;20.10;90.00;;;;;;5046971;28;20104;-79
2021/07/05 12:44:57;;;;;;;0.63;0.60;;;20.40;90.10;;;;;;5050878;28;20087;-79
2021/07/05 12:47:24;;;;;;;0.45;0.45;;;20.70;89.60;;;;;;5052162;28;20033;-80
2021/07/05 12:49:51;;;;;;;1.08;0.80;;;20.80;89.50;;;;;;5052178;28;20074;-80
2021/07/05 12:52:17;;;;;;;1.15;0.95;;;20.90;89.90;;;;;;5052626;28;20025;-75